createdAt,value
2022-10-31T00:01:41.361Z,3.40
2022-10-31T00:04:08.996Z,3.77
2022-10-31T00:06:36.520Z,3.20
2022-10-31T00:09:05.600Z,3.17
2022-10-31T00:11:33.446Z,3.50
2022-10-31T00:14:02.705Z,3.57
2022-10-31T00:16:30.716Z,3.00
2022-10-31T00:19:01.387Z,2.90
2022-10-31T00:21:30.035Z,2.97
2022-10-31T00:23:57.634Z,2.70
2022-10-31T00:26:25.193Z,3.73
2022-10-31T00:28:52.800Z,3.17
2022-10-31T00:31:21.955Z,3.43
2022-10-31T00:33:49.502Z,2.70
2022-10-31T00:36:18.770Z,2.57
2022-10-31T00:38:47.011Z,3.10
2022-10-31T00:41:15.857Z,3.20
2022-10-31T00:43:43.481Z,3.50
2022-10-31T00:46:11.232Z,2.87
2022-10-31T00:48:40.124Z,2.80
2022-10-31T00:51:07.812Z,3.00
2022-10-31T00:53:35.409Z,3.30
2022-10-31T00:56:03.208Z,2.70
2022-10-31T00:58:30.724Z,3.50
2022-10-31T01:00:58.383Z,2.77
2022-10-31T01:03:27.118Z,2.80
2022-10-31T01:06:00.755Z,3.27
2022-10-31T01:08:28.356Z,2.97
2022-10-31T01:11:06.642Z,3.03
2022-10-31T01:13:34.370Z,3.30
2022-10-31T01:16:03.332Z,2.67
2022-10-31T01:18:31.277Z,3.10
2022-10-31T01:21:01.786Z,3.10
2022-10-31T01:23:29.924Z,4.80
2022-10-31T01:26:06.331Z,2.93
2022-10-31T01:28:33.994Z,3.70
2022-10-31T01:31:07.012Z,3.20
2022-10-31T01:33:34.886Z,3.30
2022-10-31T01:36:13.330Z,3.37
2022-10-31T01:38:40.936Z,3.10
2022-10-31T01:41:09.139Z,3.20
2022-10-31T01:43:47.550Z,3.77
2022-10-31T01:46:15.831Z,2.77
2022-10-31T01:48:43.740Z,3.00
2022-10-31T01:51:14.747Z,2.77
2022-10-31T01:53:42.950Z,4.00
2022-10-31T01:56:10.834Z,3.57
2022-10-31T01:58:38.440Z,3.27
2022-10-31T02:01:08.070Z,3.60
2022-10-31T02:03:36.009Z,3.53
2022-10-31T02:06:05.303Z,3.40
2022-10-31T02:08:35.584Z,3.97
2022-10-31T02:11:03.422Z,3.67
2022-10-31T02:13:31.332Z,4.00
2022-10-31T02:16:00.608Z,2.90
2022-10-31T02:18:30.671Z,3.27
2022-10-31T02:21:05.869Z,3.30
2022-10-31T02:24:01.913Z,4.07
2022-10-31T02:26:54.996Z,3.50
2022-10-31T02:29:36.302Z,3.20
2022-10-31T02:32:08.740Z,3.23
2022-10-31T02:34:39.172Z,2.90
2022-10-31T02:37:11.972Z,2.67
2022-10-31T02:39:45.144Z,4.43
2022-10-31T02:42:16.960Z,3.20
2022-10-31T02:44:47.779Z,3.63
2022-10-31T02:47:18.304Z,3.00
2022-10-31T02:49:50.439Z,3.50
2022-10-31T02:52:21.908Z,3.70
2022-10-31T02:54:51.503Z,4.93
2022-10-31T02:57:20.942Z,3.20
2022-10-31T02:59:51.370Z,4.00
2022-10-31T03:02:39.785Z,3.43
2022-10-31T03:05:34.776Z,4.20
2022-10-31T03:08:06.657Z,3.17
2022-10-31T03:10:38.164Z,3.40
2022-10-31T03:13:11.592Z,3.00
2022-10-31T03:15:41.439Z,3.00
2022-10-31T03:18:12.317Z,3.50
2022-10-31T03:20:41.616Z,3.63
2022-10-31T03:23:12.903Z,3.70
2022-10-31T03:25:41.572Z,3.30
2022-10-31T03:28:09.970Z,3.53
2022-10-31T03:30:40.577Z,3.50
2022-10-31T03:33:11.759Z,3.33
2022-10-31T03:35:41.492Z,2.70
2022-10-31T03:38:09.297Z,4.13
2022-10-31T03:40:37.939Z,4.43
2022-10-31T03:43:09.839Z,3.60
2022-10-31T03:45:42.901Z,3.93
2022-10-31T03:48:12.020Z,3.20
2022-10-31T03:50:42.963Z,4.10
2022-10-31T03:53:15.158Z,3.50
2022-10-31T03:55:44.914Z,3.53
2022-10-31T03:58:15.217Z,3.57
2022-10-31T04:00:45.270Z,3.97
2022-10-31T04:03:16.868Z,3.30
2022-10-31T04:05:47.019Z,3.67
2022-10-31T04:08:17.888Z,4.17
2022-10-31T04:10:46.434Z,3.90
2022-10-31T04:13:17.183Z,3.03
2022-10-31T04:15:45.722Z,3.60
2022-10-31T04:18:14.754Z,2.67
2022-10-31T04:20:43.530Z,3.63
2022-10-31T04:23:18.429Z,3.53
2022-10-31T04:25:45.950Z,4.13
2022-10-31T04:28:13.505Z,3.20
2022-10-31T04:30:41.092Z,2.90
2022-10-31T04:33:08.631Z,3.13
2022-10-31T04:35:40.178Z,3.83
2022-10-31T04:38:07.732Z,3.40
2022-10-31T04:40:35.278Z,3.83
2022-10-31T04:43:03.144Z,3.70
2022-10-31T04:45:30.904Z,3.17
2022-10-31T04:48:00.855Z,3.50
2022-10-31T04:50:28.552Z,3.83
2022-10-31T04:52:57.420Z,4.37
2022-10-31T04:55:24.953Z,2.77
2022-10-31T04:57:52.506Z,4.37
2022-10-31T05:00:21.783Z,3.30
2022-10-31T05:02:49.771Z,3.10
2022-10-31T05:05:19.029Z,3.90
2022-10-31T05:07:47.745Z,3.53
2022-10-31T05:10:19.232Z,3.00
2022-10-31T05:12:50.186Z,3.13
2022-10-31T05:15:18.292Z,3.17
2022-10-31T05:17:45.806Z,3.40
2022-10-31T05:20:14.344Z,3.60
2022-10-31T05:22:44.292Z,3.77
2022-10-31T05:25:13.817Z,4.50
2022-10-31T05:27:43.762Z,3.87
2022-10-31T05:30:13.053Z,3.60
2022-10-31T05:32:40.966Z,3.80
2022-10-31T05:35:10.010Z,2.63
2022-10-31T05:37:37.557Z,3.50
2022-10-31T05:40:08.319Z,2.63
2022-10-31T05:42:36.611Z,3.90
2022-10-31T05:45:06.459Z,3.10
2022-10-31T05:47:33.993Z,3.93
2022-10-31T05:50:01.501Z,3.63
2022-10-31T05:52:29.093Z,4.00
2022-10-31T05:54:56.652Z,4.30
2022-10-31T05:57:24.307Z,3.20
2022-10-31T05:59:55.113Z,2.90
2022-10-31T06:02:24.214Z,3.57
2022-10-31T06:04:51.792Z,3.43
2022-10-31T06:07:19.928Z,3.57
2022-10-31T06:09:47.478Z,3.20
2022-10-31T06:12:15.014Z,3.40
2022-10-31T06:14:42.625Z,3.30
2022-10-31T06:17:10.163Z,2.93
2022-10-31T06:19:39.054Z,3.57
2022-10-31T06:22:06.660Z,3.67
2022-10-31T06:24:34.731Z,3.10
2022-10-31T06:27:02.257Z,4.30
2022-10-31T06:29:29.794Z,4.10
2022-10-31T06:31:57.423Z,6.30
2022-10-31T06:34:25.126Z,3.23
2022-10-31T06:36:54.015Z,3.73
2022-10-31T06:39:21.624Z,3.30
2022-10-31T06:41:49.336Z,3.83
2022-10-31T06:44:16.887Z,3.63
2022-10-31T06:46:44.397Z,3.40
2022-10-31T06:49:11.915Z,3.47
2022-10-31T06:51:39.439Z,3.20
2022-10-31T06:54:08.350Z,4.03
2022-10-31T06:56:35.878Z,3.73
2022-10-31T06:59:03.533Z,7.30
2022-10-31T07:01:31.208Z,3.80
2022-10-31T07:03:58.830Z,3.10
2022-10-31T07:06:26.439Z,4.20
2022-10-31T07:08:54.004Z,5.20
2022-10-31T07:11:22.880Z,3.97
2022-10-31T07:13:50.411Z,4.77
2022-10-31T07:16:17.985Z,3.80
2022-10-31T07:18:45.532Z,3.77
2022-10-31T07:21:13.050Z,4.13
2022-10-31T07:23:40.600Z,3.73
2022-10-31T07:26:08.169Z,3.37
2022-10-31T07:28:37.103Z,2.80
2022-10-31T07:31:04.657Z,3.60
2022-10-31T07:33:32.197Z,4.63
2022-10-31T07:35:59.757Z,4.23
2022-10-31T07:38:27.306Z,3.33
2022-10-31T07:40:55.108Z,3.17
2022-10-31T07:43:23.572Z,3.70
2022-10-31T07:45:53.051Z,3.80
2022-10-31T07:48:20.858Z,3.43
2022-10-31T07:50:48.435Z,3.40
2022-10-31T07:53:16.750Z,3.80
2022-10-31T07:55:44.748Z,3.37
2022-10-31T07:58:13.297Z,3.40
2022-10-31T08:00:44.264Z,3.00
2022-10-31T08:03:14.417Z,3.83
2022-10-31T08:05:42.052Z,4.30
2022-10-31T08:08:10.264Z,4.33
2022-10-31T08:10:38.428Z,5.23
2022-10-31T08:13:08.060Z,5.10
2022-10-31T08:15:38.945Z,6.73
2022-10-31T08:18:06.661Z,7.50
2022-10-31T08:20:35.551Z,4.43
2022-10-31T08:23:05.844Z,3.90
2022-10-31T08:25:38.319Z,3.27
2022-10-31T08:28:07.616Z,3.13
2022-10-31T08:30:37.343Z,4.57
2022-10-31T08:33:06.170Z,3.37
2022-10-31T08:35:35.165Z,4.50
2022-10-31T08:38:04.565Z,3.80
2022-10-31T08:40:36.490Z,4.23
2022-10-31T08:43:05.335Z,3.50
2022-10-31T08:45:34.423Z,4.00
2022-10-31T08:48:04.182Z,4.47
2022-10-31T08:50:33.327Z,4.47
2022-10-31T08:53:06.798Z,4.37
2022-10-31T08:55:35.401Z,4.53
2022-10-31T08:58:03.479Z,3.83
2022-10-31T09:00:31.328Z,6.53
2022-10-31T09:02:59.652Z,5.10
2022-10-31T09:05:27.547Z,4.90
2022-10-31T09:07:57.584Z,4.70
2022-10-31T09:10:27.161Z,4.80
2022-10-31T09:12:58.397Z,4.73
2022-10-31T09:15:26.129Z,4.80
2022-10-31T09:17:53.814Z,4.60
2022-10-31T09:20:21.777Z,5.83
2022-10-31T09:22:49.338Z,5.43
2022-10-31T09:25:16.965Z,5.07
2022-10-31T09:27:45.845Z,5.03
2022-10-31T09:30:14.148Z,5.37
2022-10-31T09:32:41.690Z,5.73
2022-10-31T09:35:09.808Z,7.00
2022-10-31T09:37:37.363Z,5.50
2022-10-31T09:40:06.008Z,6.10
2022-10-31T09:42:58.327Z,5.97
2022-10-31T09:45:31.570Z,6.13
2022-10-31T09:48:12.163Z,5.97
2022-10-31T09:50:43.930Z,5.77
2022-10-31T09:53:18.519Z,5.60
2022-10-31T09:55:47.621Z,6.00
2022-10-31T09:58:18.912Z,6.77
2022-10-31T10:00:50.162Z,6.03
2022-10-31T10:03:29.302Z,6.50
2022-10-31T10:06:03.426Z,5.13
2022-10-31T10:08:33.518Z,5.40
2022-10-31T10:11:26.043Z,5.90
2022-10-31T10:14:06.621Z,6.67
2022-10-31T10:16:46.574Z,6.60
2022-10-31T10:19:26.519Z,6.00
2022-10-31T10:22:00.699Z,6.03
2022-10-31T10:24:35.935Z,6.53
2022-10-31T10:27:11.621Z,5.50
2022-10-31T10:29:44.754Z,6.23
2022-10-31T10:32:16.373Z,5.10
2022-10-31T10:34:48.110Z,5.37
2022-10-31T10:37:23.357Z,5.60
2022-10-31T10:39:55.213Z,6.13
2022-10-31T10:42:40.902Z,6.07
2022-10-31T10:45:34.246Z,5.27
2022-10-31T10:48:10.625Z,6.00
2022-10-31T10:50:42.746Z,5.50
2022-10-31T10:53:22.261Z,5.47
2022-10-31T10:55:54.526Z,6.47
2022-10-31T10:58:22.137Z,5.60
2022-10-31T11:00:51.293Z,5.20
2022-10-31T11:03:19.755Z,6.13
2022-10-31T11:05:50.178Z,5.33
2022-10-31T11:08:27.504Z,5.00
2022-10-31T11:11:01.367Z,6.60
2022-10-31T11:13:29.023Z,5.20
2022-10-31T11:16:01.870Z,5.70
2022-10-31T11:18:32.061Z,5.63
2022-10-31T11:21:00.966Z,6.30
2022-10-31T11:23:29.546Z,5.47
2022-10-31T11:25:58.901Z,6.00
2022-10-31T11:28:27.503Z,5.50
2022-10-31T11:30:56.545Z,5.80
2022-10-31T11:33:30.149Z,4.80
2022-10-31T11:35:58.518Z,5.47
2022-10-31T11:38:34.733Z,5.47
2022-10-31T11:41:09.778Z,5.20
2022-10-31T11:43:37.474Z,5.50
2022-10-31T11:46:11.544Z,6.73
2022-10-31T11:48:40.469Z,5.40
2022-10-31T11:51:09.348Z,7.57
2022-10-31T11:53:37.061Z,7.63
2022-10-31T11:56:08.105Z,7.80
2022-10-31T11:58:35.648Z,7.00
2022-10-31T12:01:05.795Z,5.53
2022-10-31T12:03:45.958Z,6.33
2022-10-31T12:06:18.827Z,5.93
2022-10-31T12:08:47.476Z,6.87
2022-10-31T12:11:29.305Z,6.83
2022-10-31T12:14:05.857Z,6.13
2022-10-31T12:16:37.071Z,5.30
2022-10-31T12:19:07.563Z,6.20
2022-10-31T12:21:51.879Z,6.37
2022-10-31T12:24:39.771Z,6.27
2022-10-31T12:27:16.568Z,6.70
2022-10-31T12:29:58.378Z,6.00
2022-10-31T12:32:35.390Z,5.40
2022-10-31T12:35:23.369Z,5.60
2022-10-31T12:38:00.986Z,6.60
2022-10-31T12:40:41.159Z,5.90
2022-10-31T12:43:20.026Z,6.03
2022-10-31T12:45:55.493Z,5.37
2022-10-31T12:48:55.415Z,6.23
2022-10-31T12:51:34.013Z,6.37
2022-10-31T12:54:19.188Z,7.20
2022-10-31T12:57:02.787Z,6.63
2022-10-31T12:59:33.882Z,5.20
2022-10-31T13:02:04.732Z,5.80
2022-10-31T13:04:44.252Z,5.90
2022-10-31T13:07:16.147Z,5.63
2022-10-31T13:09:58.732Z,5.47
2022-10-31T13:12:26.467Z,5.63
2022-10-31T13:14:56.669Z,5.60
2022-10-31T13:17:30.006Z,5.10
2022-10-31T13:20:16.494Z,5.67
2022-10-31T13:22:48.096Z,5.80
2022-10-31T13:25:17.812Z,5.80
2022-10-31T13:27:49.339Z,7.43
2022-10-31T13:30:18.623Z,6.53
2022-10-31T13:32:49.937Z,8.47
2022-10-31T13:35:22.782Z,6.80
2022-10-31T13:37:56.522Z,5.97
2022-10-31T13:40:38.355Z,7.20
2022-10-31T13:43:13.316Z,7.20
2022-10-31T13:45:51.512Z,7.80
2022-10-31T13:48:36.698Z,7.27
2022-10-31T13:51:08.444Z,8.07
2022-10-31T13:53:46.325Z,7.07
2022-10-31T13:56:20.084Z,6.60
2022-10-31T13:59:00.754Z,8.80
2022-10-31T14:01:31.048Z,7.50
2022-10-31T14:04:10.954Z,5.53
2022-10-31T14:06:44.364Z,5.83
2022-10-31T14:09:27.225Z,6.43
2022-10-31T14:11:55.452Z,6.13
2022-10-31T14:14:24.489Z,6.20
2022-10-31T14:16:57.256Z,6.83
2022-10-31T14:19:25.273Z,6.77
2022-10-31T14:21:52.976Z,6.63
2022-10-31T14:24:36.551Z,6.87
2022-10-31T14:27:06.831Z,6.67
2022-10-31T14:29:35.325Z,7.70
2022-10-31T14:32:11.853Z,7.30
2022-10-31T14:34:41.019Z,6.63
2022-10-31T14:37:35.104Z,7.50
2022-10-31T14:40:13.809Z,6.80
2022-10-31T14:42:53.257Z,5.93
2022-10-31T14:45:28.039Z,5.70
2022-10-31T14:48:08.104Z,5.30
2022-10-31T14:50:43.762Z,5.37
2022-10-31T14:53:16.889Z,7.13
2022-10-31T14:55:49.156Z,6.13
2022-10-31T14:58:20.956Z,5.30
2022-10-31T15:00:54.979Z,4.60
2022-10-31T15:03:27.165Z,6.50
2022-10-31T15:05:56.439Z,4.70
2022-10-31T15:08:36.699Z,5.00
2022-10-31T15:11:16.294Z,4.87
2022-10-31T15:13:45.786Z,4.93
2022-10-31T15:16:16.235Z,5.60
2022-10-31T15:18:50.219Z,4.83
2022-10-31T15:21:18.568Z,4.83
2022-10-31T15:23:46.227Z,4.50
2022-10-31T15:26:19.220Z,4.80
2022-10-31T15:28:47.216Z,5.50
2022-10-31T15:31:17.330Z,4.87
2022-10-31T15:33:48.990Z,4.73
2022-10-31T15:36:27.394Z,5.60
2022-10-31T15:38:57.964Z,5.37
2022-10-31T15:41:44.266Z,4.93
2022-10-31T15:44:17.471Z,5.30
2022-10-31T15:46:45.258Z,5.90
2022-10-31T15:49:21.533Z,5.23
2022-10-31T15:51:54.134Z,5.57
2022-10-31T15:54:22.152Z,5.77
2022-10-31T15:56:51.074Z,5.53
2022-10-31T15:59:21.820Z,6.07
2022-10-31T16:02:02.606Z,5.90
2022-10-31T16:04:30.992Z,6.43
2022-10-31T16:07:01.729Z,4.60
2022-10-31T16:09:29.431Z,5.30
2022-10-31T16:12:00.325Z,4.97
2022-10-31T16:14:30.097Z,4.50
2022-10-31T16:16:59.840Z,4.70
2022-10-31T16:19:29.885Z,5.77
2022-10-31T16:22:04.669Z,5.47
2022-10-31T16:24:34.078Z,5.50
2022-10-31T16:27:05.770Z,4.70
2022-10-31T16:29:36.618Z,5.27
2022-10-31T16:32:04.772Z,5.73
2022-10-31T16:34:32.331Z,6.70
2022-10-31T16:37:02.421Z,5.80
2022-10-31T16:39:31.086Z,5.70
2022-10-31T16:41:58.752Z,4.50
2022-10-31T16:44:28.370Z,5.30
2022-10-31T16:47:10.930Z,4.50
2022-10-31T16:49:38.681Z,4.80
2022-10-31T16:52:06.249Z,5.27
2022-10-31T16:54:33.832Z,4.77
2022-10-31T16:57:01.924Z,5.10
2022-10-31T16:59:31.613Z,5.17
2022-10-31T17:01:59.960Z,5.10
2022-10-31T17:04:28.048Z,4.23
2022-10-31T17:06:57.505Z,5.53
2022-10-31T17:09:26.964Z,6.63
2022-10-31T17:11:55.505Z,4.50
2022-10-31T17:14:23.291Z,4.43
2022-10-31T17:16:52.242Z,5.60
2022-10-31T17:19:20.396Z,5.03
2022-10-31T17:21:48.248Z,4.70
2022-10-31T17:24:16.512Z,4.30
2022-10-31T17:26:44.540Z,3.90
2022-10-31T17:29:12.116Z,3.90
2022-10-31T17:31:39.982Z,4.37
2022-10-31T17:34:09.515Z,4.23
2022-10-31T17:36:37.546Z,4.10
2022-10-31T17:39:07.470Z,4.67
2022-10-31T17:41:35.104Z,4.40
2022-10-31T17:44:02.734Z,3.90
2022-10-31T17:46:30.244Z,4.70
2022-10-31T17:49:00.788Z,4.00
2022-10-31T17:51:29.799Z,3.60
2022-10-31T17:53:58.406Z,4.50
2022-10-31T17:56:26.265Z,5.90
2022-10-31T17:58:53.864Z,3.80
2022-10-31T18:01:21.709Z,3.60
2022-10-31T18:03:49.335Z,4.10
2022-10-31T18:06:17.380Z,4.00
2022-10-31T18:08:46.240Z,3.90
2022-10-31T18:11:21.327Z,4.47
2022-10-31T18:13:56.404Z,4.67
2022-10-31T18:16:24.597Z,4.27
2022-10-31T18:18:53.319Z,3.60
2022-10-31T18:21:24.326Z,3.40
2022-10-31T18:23:56.468Z,4.30
2022-10-31T18:26:25.569Z,3.90
2022-10-31T18:28:56.945Z,3.60
2022-10-31T18:31:27.516Z,6.50
2022-10-31T18:33:55.530Z,5.93
2022-10-31T18:36:23.748Z,8.47
2022-10-31T18:38:52.723Z,12.30
2022-10-31T18:41:23.203Z,8.43
2022-10-31T18:43:51.441Z,4.80
2022-10-31T18:46:19.497Z,4.73
2022-10-31T18:48:47.635Z,4.13
2022-10-31T18:51:18.256Z,4.07
2022-10-31T18:53:51.463Z,4.17
2022-10-31T18:56:19.739Z,4.03
2022-10-31T18:58:48.676Z,4.80
2022-10-31T19:01:17.710Z,4.90
2022-10-31T19:03:45.447Z,4.20
2022-10-31T19:06:13.332Z,6.57
2022-10-31T19:08:40.925Z,4.90
2022-10-31T19:11:10.270Z,6.30
2022-10-31T19:13:39.770Z,5.63
2022-10-31T19:16:11.841Z,6.27
2022-10-31T19:18:41.796Z,5.50
2022-10-31T19:21:10.716Z,6.23
2022-10-31T19:23:38.400Z,6.37
2022-10-31T19:26:06.296Z,5.40
2022-10-31T19:28:37.707Z,4.77
2022-10-31T19:31:05.907Z,5.23
2022-10-31T19:33:36.329Z,3.87
2022-10-31T19:36:08.165Z,6.00
2022-10-31T19:38:35.845Z,4.53
2022-10-31T19:41:05.450Z,4.27
2022-10-31T19:43:33.361Z,5.40
2022-10-31T19:46:02.369Z,4.90
2022-10-31T19:48:30.106Z,5.30
2022-10-31T19:51:03.522Z,6.13
2022-10-31T19:53:31.912Z,4.00
2022-10-31T19:55:59.984Z,3.97
2022-10-31T19:58:28.034Z,4.77
2022-10-31T20:00:56.225Z,4.93
2022-10-31T20:03:25.369Z,5.97
2022-10-31T20:05:53.049Z,5.07
2022-10-31T20:08:22.953Z,4.23
2022-10-31T20:10:59.254Z,5.10
2022-10-31T20:13:27.133Z,5.87
2022-10-31T20:15:59.292Z,5.90
2022-10-31T20:18:27.399Z,4.97
2022-10-31T20:20:55.039Z,4.63
2022-10-31T20:23:24.001Z,4.90
2022-10-31T20:25:51.626Z,5.20
2022-10-31T20:28:19.263Z,6.07
2022-10-31T20:30:49.292Z,6.07
2022-10-31T20:33:18.926Z,4.70
2022-10-31T20:35:46.531Z,4.87
2022-10-31T20:38:14.754Z,4.50
2022-10-31T20:40:43.640Z,5.27
2022-10-31T20:43:12.647Z,4.90
2022-10-31T20:45:40.328Z,5.50
2022-10-31T20:48:08.122Z,5.17
2022-10-31T20:50:35.887Z,4.60
2022-10-31T20:53:03.918Z,4.00
2022-10-31T20:55:32.022Z,4.83
2022-10-31T20:58:00.981Z,5.00
2022-10-31T21:00:28.545Z,4.60
2022-10-31T21:02:56.089Z,5.20
2022-10-31T21:05:23.922Z,4.40
2022-10-31T21:10:19.182Z,4.80
2022-10-31T21:12:49.608Z,4.83
2022-10-31T21:15:18.775Z,4.43
2022-10-31T21:17:46.384Z,4.90
2022-10-31T21:20:14.213Z,4.20
2022-10-31T21:22:41.760Z,5.10
2022-10-31T21:25:09.588Z,5.10
2022-10-31T21:27:37.171Z,5.17
2022-10-31T21:30:08.224Z,4.10
2022-10-31T21:32:37.093Z,4.70
2022-10-31T21:35:05.098Z,5.80
2022-10-31T21:37:32.693Z,4.67
2022-10-31T21:40:00.494Z,4.90
2022-10-31T21:42:28.366Z,5.23
2022-10-31T21:44:55.915Z,4.60
2022-10-31T21:47:26.037Z,4.53
2022-10-31T21:49:54.982Z,4.77
2022-10-31T21:52:22.495Z,4.47
2022-10-31T21:54:49.058Z,5.57
2022-10-31T21:57:16.604Z,5.50
2022-10-31T21:59:48.391Z,3.90
2022-10-31T22:02:16.103Z,4.93
2022-10-31T22:04:44.180Z,4.40
2022-10-31T22:07:13.203Z,5.10
2022-10-31T22:09:41.599Z,4.67
2022-10-31T22:12:09.705Z,5.00
2022-10-31T22:14:37.315Z,6.07
2022-10-31T22:17:04.871Z,5.63
2022-10-31T22:19:32.430Z,5.53
2022-10-31T22:22:00.055Z,4.60
2022-10-31T22:24:28.912Z,4.73
2022-10-31T22:26:56.470Z,4.40
2022-10-31T22:29:23.976Z,5.27
2022-10-31T22:31:57.298Z,4.50
2022-10-31T22:34:28.188Z,4.60
2022-10-31T22:36:56.414Z,6.23
2022-10-31T22:39:24.028Z,4.60
2022-10-31T22:41:52.928Z,5.00
2022-10-31T22:44:20.427Z,5.80
2022-10-31T22:46:48.053Z,4.00
2022-10-31T22:49:16.418Z,4.83
2022-10-31T22:51:44.826Z,6.50
2022-10-31T22:54:14.656Z,3.80
2022-10-31T22:56:42.236Z,3.70
2022-10-31T22:59:14.693Z,3.90
2022-10-31T23:01:44.622Z,4.50
2022-10-31T23:06:45.049Z,4.33
2022-10-31T23:09:15.206Z,5.07
2022-10-31T23:11:42.808Z,4.53
2022-10-31T23:14:13.783Z,4.00
2022-10-31T23:16:49.359Z,4.23
2022-10-31T23:19:18.526Z,5.17
2022-10-31T23:21:57.408Z,4.40
2022-10-31T23:24:27.985Z,5.60
2022-10-31T23:27:11.381Z,4.80
2022-10-31T23:29:44.284Z,5.37
2022-10-31T23:32:15.835Z,4.93
2022-10-31T23:34:43.937Z,4.00
2022-10-31T23:37:12.015Z,4.20
2022-10-31T23:39:39.538Z,4.70
2022-10-31T23:42:07.859Z,4.33
2022-10-31T23:44:35.411Z,4.13
2022-10-31T23:47:04.802Z,4.03
2022-10-31T23:49:32.340Z,4.00
2022-10-31T23:52:03.509Z,3.90
2022-10-31T23:54:31.633Z,4.60
2022-10-31T23:56:59.648Z,5.17
2022-10-31T23:59:28.911Z,4.53
